Time;durP1;ratioP1;P1;durP2;ratioP2;P2;SDS_P1;SDS_P2;PMS_P1;PMS_P2;Temp;Humidity;BMP_temperature;BMP_pressure;BME280_temperature;BME280_humidity;BME280_pressure;Samples;Min_cycle;Max_cycle;Signal;HPM_P1;HPM_P2
2022/10/02 00:00:34;;;;;;;33.33;4.90;;;15.20;99.90;;;;;;5061057;28;20189;-61
2022/10/02 00:03:08;;;;;;;27.20;4.40;;;15.20;99.90;;;;;;5058460;28;20195;-61
2022/10/02 00:05:42;;;;;;;27.87;5.27;;;15.20;99.90;;;;;;5068836;28;20233;-61
2022/10/02 00:08:14;;;;;;;33.43;5.10;;;15.30;99.90;;;;;;5065934;28;20208;-61
2022/10/02 00:10:49;;;;;;;31.43;5.00;;;15.30;99.90;;;;;;5066163;28;20620;-61
2022/10/02 00:13:22;;;;;;;31.90;5.17;;;15.30;99.90;;;;;;5068658;28;20218;-61
2022/10/02 00:15:52;;;;;;;24.20;4.40;;;15.30;99.90;;;;;;5080696;28;20218;-61
2022/10/02 00:18:23;;;;;;;33.90;4.90;;;15.30;99.90;;;;;;5066337;28;20523;-61
2022/10/02 00:21:03;;;;;;;32.80;4.83;;;15.30;99.90;;;;;;5060699;28;20196;-61
2022/10/02 00:23:37;;;;;;;27.70;5.23;;;15.40;99.90;;;;;;5063796;28;20651;-61
2022/10/02 00:26:12;;;;;;;26.87;4.63;;;15.40;99.90;;;;;;5063158;28;20220;-61
2022/10/02 00:28:51;;;;;;;32.57;4.50;;;15.40;99.90;;;;;;5066229;28;20203;-61
2022/10/02 00:31:33;;;;;;;22.77;4.23;;;15.40;99.90;;;;;;5073866;28;20217;-61
2022/10/02 00:34:19;;;;;;;22.47;4.57;;;15.40;99.90;;;;;;5078727;28;20207;-61
2022/10/02 00:36:59;;;;;;;28.27;4.97;;;15.40;99.90;;;;;;5074664;28;20216;-61
2022/10/02 00:39:40;;;;;;;36.60;4.87;;;15.40;99.90;;;;;;5064744;28;20208;-61
2022/10/02 00:42:46;;;;;;;32.40;4.53;;;15.40;99.90;;;;;;5067057;28;20189;-61
2022/10/02 00:45:42;;;;;;;26.93;4.87;;;15.50;99.90;;;;;;5065516;28;20207;-61
2022/10/02 00:48:41;;;;;;;31.43;4.93;;;15.40;99.90;;;;;;5067139;28;20227;-61
2022/10/02 00:51:19;;;;;;;25.50;4.43;;;15.40;99.90;;;;;;5064736;28;20212;-61
2022/10/02 00:53:56;;;;;;;30.67;5.13;;;15.40;99.90;;;;;;5070068;28;20197;-61
2022/10/02 00:56:35;;;;;;;33.23;4.90;;;15.40;99.90;;;;;;5075328;28;20196;-61
2022/10/02 00:59:23;;;;;;;40.10;5.00;;;15.40;99.90;;;;;;5077325;28;20201;-61
2022/10/02 01:01:58;;;;;;;29.30;5.00;;;15.40;99.90;;;;;;5073673;28;20668;-61
2022/10/02 01:04:31;;;;;;;31.77;5.17;;;15.40;99.90;;;;;;5078961;28;20273;-61
2022/10/02 01:07:00;;;;;;;26.77;4.33;;;15.30;99.90;;;;;;5070945;28;20243;-61
2022/10/02 01:09:30;;;;;;;30.60;4.90;;;15.30;99.90;;;;;;5073565;28;20654;-61
2022/10/02 01:11:58;;;;;;;28.83;4.60;;;15.30;99.90;;;;;;5075761;28;20207;-61
2022/10/02 01:14:33;;;;;;;29.10;4.73;;;15.30;99.90;;;;;;5073826;28;20201;-61
2022/10/02 01:17:02;;;;;;;26.33;4.60;;;15.40;99.90;;;;;;5085264;28;20242;-61
2022/10/02 01:19:36;;;;;;;30.23;4.77;;;15.40;99.90;;;;;;5070620;28;20204;-61
2022/10/02 01:22:13;;;;;;;31.10;5.30;;;15.40;99.90;;;;;;5079279;28;20199;-61
2022/10/02 01:24:50;;;;;;;28.37;4.27;;;15.30;99.90;;;;;;5068929;28;20589;-61
2022/10/02 01:27:18;;;;;;;34.93;5.80;;;15.30;99.90;;;;;;5075297;28;20200;-61
2022/10/02 01:29:54;;;;;;;33.47;5.53;;;15.30;99.90;;;;;;5062838;28;20249;-61
2022/10/02 01:32:24;;;;;;;29.10;4.80;;;15.40;99.90;;;;;;5070326;28;20235;-61
2022/10/02 01:34:54;;;;;;;27.30;5.00;;;15.30;99.90;;;;;;5063421;28;20283;-61
2022/10/02 01:37:24;;;;;;;29.57;5.40;;;15.40;99.90;;;;;;5068173;28;20195;-61
2022/10/02 01:39:54;;;;;;;29.57;4.90;;;15.40;99.90;;;;;;5068323;28;20196;-61
2022/10/02 01:42:22;;;;;;;25.10;5.03;;;15.30;99.90;;;;;;5065455;28;20185;-61
2022/10/02 01:44:51;;;;;;;29.40;4.53;;;15.30;99.90;;;;;;5060522;28;20196;-61
2022/10/02 01:47:26;;;;;;;27.37;4.73;;;15.30;99.90;;;;;;5075983;28;20206;-61
2022/10/02 01:50:07;;;;;;;32.97;4.97;;;15.30;99.90;;;;;;5077910;28;20196;-61
2022/10/02 01:52:46;;;;;;;34.33;5.57;;;15.30;99.90;;;;;;5070369;28;20211;-61
2022/10/02 01:55:26;;;;;;;30.93;4.20;;;15.30;99.90;;;;;;5069475;28;20196;-61
2022/10/02 01:58:05;;;;;;;34.50;4.93;;;15.20;99.90;;;;;;5064662;28;20196;-61
2022/10/02 02:00:51;;;;;;;32.23;4.57;;;15.20;99.90;;;;;;5066390;28;20200;-61
2022/10/02 02:03:24;;;;;;;25.63;4.67;;;15.20;99.90;;;;;;5080679;28;20774;-61
2022/10/02 02:05:56;;;;;;;23.87;4.30;;;15.10;99.90;;;;;;5075172;28;20228;-61
2022/10/02 02:08:31;;;;;;;17.50;3.90;;;15.10;99.90;;;;;;5079520;28;20249;-61
2022/10/02 02:11:10;;;;;;;18.83;3.67;;;15.00;99.90;;;;;;5060838;28;20666;-61
2022/10/02 02:13:48;;;;;;;22.33;4.07;;;15.00;99.90;;;;;;5066662;28;20199;-61
2022/10/02 02:16:24;;;;;;;18.93;3.83;;;15.00;99.90;;;;;;5072011;28;20195;-60
2022/10/02 02:18:59;;;;;;;19.40;3.90;;;15.00;99.90;;;;;;5084395;28;20199;-61
2022/10/02 02:21:31;;;;;;;17.20;3.60;;;15.00;99.90;;;;;;5070616;28;20195;-61
2022/10/02 02:24:03;;;;;;;20.27;4.30;;;15.00;99.90;;;;;;5069556;28;20221;-61
2022/10/02 02:26:35;;;;;;;20.87;4.40;;;14.90;99.90;;;;;;5070228;28;20200;-61
2022/10/02 02:29:08;;;;;;;21.90;4.43;;;14.90;99.90;;;;;;5066049;28;20232;-61
2022/10/02 02:31:41;;;;;;;19.17;3.43;;;14.90;99.90;;;;;;5065520;28;20224;-62
2022/10/02 02:34:13;;;;;;;18.77;3.60;;;14.90;99.90;;;;;;5078743;28;20214;-61
2022/10/02 02:36:45;;;;;;;18.60;3.60;;;14.80;99.90;;;;;;5074617;28;20196;-61
2022/10/02 02:39:16;;;;;;;26.83;3.67;;;14.80;99.90;;;;;;5066811;28;20207;-61
2022/10/02 02:41:51;;;;;;;21.43;4.53;;;14.80;99.90;;;;;;5075592;28;20184;-61
2022/10/02 02:44:24;;;;;;;17.10;3.97;;;14.80;99.90;;;;;;5074575;28;20206;-61
2022/10/02 02:47:04;;;;;;;19.43;4.47;;;14.80;99.90;;;;;;5074564;28;20567;-61
2022/10/02 02:49:37;;;;;;;15.73;3.90;;;14.80;99.90;;;;;;5069616;28;20646;-61
2022/10/02 02:52:11;;;;;;;21.20;3.73;;;14.70;99.90;;;;;;5060213;28;20224;-61
2022/10/02 02:54:45;;;;;;;18.43;4.00;;;14.70;99.90;;;;;;5066786;28;20199;-61
2022/10/02 02:57:18;;;;;;;18.77;4.13;;;14.70;99.90;;;;;;5068828;28;20207;-61
2022/10/02 02:59:50;;;;;;;24.03;3.80;;;14.70;99.90;;;;;;5058294;28;20206;-61
2022/10/02 03:02:19;;;;;;;21.40;3.37;;;14.70;99.90;;;;;;5063965;28;20666;-61
2022/10/02 03:04:47;;;;;;;13.20;3.00;;;14.60;99.90;;;;;;5079900;28;20223;-61
2022/10/02 03:07:17;;;;;;;15.73;3.07;;;14.60;99.90;;;;;;5080579;28;20224;-61
2022/10/02 03:10:01;;;;;;;20.40;3.97;;;14.60;99.90;;;;;;5070994;28;20219;-61
2022/10/02 03:12:44;;;;;;;17.20;3.37;;;14.60;99.90;;;;;;5076490;28;20214;-61
2022/10/02 03:15:26;;;;;;;13.10;2.70;;;14.60;99.90;;;;;;5068244;28;20199;-61
2022/10/02 03:18:19;;;;;;;13.17;3.30;;;14.60;99.90;;;;;;5070167;28;20196;-62
2022/10/02 03:20:57;;;;;;;15.33;3.63;;;14.50;99.90;;;;;;5069268;28;20224;-61
2022/10/02 03:23:30;;;;;;;19.73;3.27;;;14.50;99.90;;;;;;5085882;28;20208;-61
2022/10/02 03:26:04;;;;;;;10.63;2.93;;;14.50;99.90;;;;;;5081325;28;20222;-61
2022/10/02 03:28:38;;;;;;;20.77;3.20;;;14.50;99.90;;;;;;5080660;28;20647;-61
2022/10/02 03:31:27;;;;;;;13.50;2.97;;;14.40;99.90;;;;;;5064166;28;20249;-61
2022/10/02 03:33:58;;;;;;;12.00;2.93;;;14.50;99.90;;;;;;5061137;28;20222;-61
2022/10/02 03:36:27;;;;;;;12.77;2.93;;;14.50;99.90;;;;;;5081825;28;20188;-61
2022/10/02 03:38:58;;;;;;;13.20;3.20;;;14.50;99.90;;;;;;5072759;28;20199;-61
2022/10/02 03:41:47;;;;;;;12.57;3.10;;;14.50;99.90;;;;;;5081784;28;20593;-61
2022/10/02 03:44:17;;;;;;;15.87;3.07;;;14.50;99.90;;;;;;5072364;28;20207;-61
2022/10/02 03:46:45;;;;;;;19.63;3.50;;;14.50;99.90;;;;;;5077649;28;20196;-61
2022/10/02 03:49:13;;;;;;;18.00;3.13;;;14.40;99.90;;;;;;5067840;28;20187;-61
2022/10/02 03:51:41;;;;;;;12.67;3.13;;;14.40;99.90;;;;;;5075246;28;20183;-61
2022/10/02 03:54:16;;;;;;;10.50;3.00;;;14.40;99.90;;;;;;5068813;28;20188;-61
2022/10/02 03:56:53;;;;;;;16.43;3.73;;;14.40;99.90;;;;;;5071158;28;20188;-61
2022/10/02 03:59:35;;;;;;;16.50;3.47;;;14.40;99.90;;;;;;5072696;28;20204;-61
2022/10/02 04:02:09;;;;;;;11.10;2.93;;;14.40;99.90;;;;;;5064794;28;20200;-61
2022/10/02 04:04:45;;;;;;;16.97;3.43;;;14.40;99.90;;;;;;5062817;28;20194;-61
2022/10/02 04:07:20;;;;;;;12.57;3.20;;;14.40;99.90;;;;;;5066397;28;20306;-61
2022/10/02 04:09:57;;;;;;;18.60;3.33;;;14.40;99.90;;;;;;5075920;28;20191;-61
2022/10/02 04:12:33;;;;;;;12.33;3.07;;;14.40;99.90;;;;;;5064279;28;20269;-61
2022/10/02 04:15:06;;;;;;;17.33;3.63;;;14.40;99.90;;;;;;5097005;28;20275;-61
2022/10/02 04:17:42;;;;;;;17.00;3.43;;;14.30;99.90;;;;;;5065259;28;20208;-61
2022/10/02 04:20:16;;;;;;;14.93;3.37;;;14.30;99.90;;;;;;5099257;28;20643;-61
2022/10/02 04:22:52;;;;;;;12.07;3.43;;;14.20;99.90;;;;;;5057248;28;20196;-61
2022/10/02 04:25:23;;;;;;;21.03;3.50;;;14.20;99.90;;;;;;5071277;28;20709;-62
2022/10/02 04:27:56;;;;;;;16.70;3.80;;;14.20;99.90;;;;;;5076201;28;20218;-61
2022/10/02 04:30:28;;;;;;;16.47;3.67;;;14.10;99.90;;;;;;5068384;28;20615;-62
2022/10/02 04:33:09;;;;;;;14.53;3.47;;;14.10;99.90;;;;;;5071208;28;20234;-62
2022/10/02 04:35:47;;;;;;;14.87;2.87;;;14.10;99.90;;;;;;5069227;28;20235;-62
2022/10/02 04:38:36;;;;;;;24.53;3.30;;;14.10;99.90;;;;;;5068557;28;20200;-62
2022/10/02 04:41:21;;;;;;;18.33;2.70;;;14.00;99.90;;;;;;5070693;28;20279;-62
2022/10/02 04:44:02;;;;;;;17.33;3.07;;;14.00;99.90;;;;;;5069141;28;20200;-62
2022/10/02 04:47:03;;;;;;;15.17;2.80;;;14.00;99.90;;;;;;5070568;28;20207;-61
2022/10/02 04:49:48;;;;;;;15.27;2.80;;;14.00;99.90;;;;;;5066706;28;20185;-62
2022/10/02 04:52:38;;;;;;;17.20;3.10;;;13.90;99.90;;;;;;5064727;28;20220;-62
2022/10/02 04:55:23;;;;;;;21.80;3.50;;;13.90;99.90;;;;;;5061772;28;20211;-62
2022/10/02 04:58:11;;;;;;;13.60;3.07;;;13.90;99.90;;;;;;5067355;28;20647;-62
2022/10/02 05:00:48;;;;;;;16.57;3.23;;;13.90;99.90;;;;;;5073648;28;20240;-62
2022/10/02 05:03:32;;;;;;;15.57;3.00;;;13.90;99.90;;;;;;5070157;28;20204;-62
2022/10/02 05:06:24;;;;;;;15.93;3.10;;;13.90;99.90;;;;;;5075671;28;20223;-61
2022/10/02 05:09:11;;;;;;;17.83;3.40;;;13.90;99.90;;;;;;5069071;28;20192;-61
2022/10/02 05:11:53;;;;;;;13.13;3.37;;;13.80;99.90;;;;;;5072744;28;20210;-62
2022/10/02 05:14:57;;;;;;;16.83;2.90;;;13.80;99.90;;;;;;5071369;28;20215;-62
2022/10/02 05:17:41;;;;;;;16.77;3.80;;;13.80;99.90;;;;;;5064915;28;20209;-62
2022/10/02 05:20:40;;;;;;;15.77;3.53;;;13.80;99.90;;;;;;5072633;28;20657;-61
2022/10/02 05:23:25;;;;;;;22.43;3.53;;;13.80;99.90;;;;;;5057654;28;20197;-61
2022/10/02 05:26:18;;;;;;;24.63;4.10;;;13.80;99.90;;;;;;5069302;28;20211;-62
2022/10/02 05:29:10;;;;;;;14.77;3.13;;;13.90;99.90;;;;;;5085443;28;20201;-61
2022/10/02 05:31:54;;;;;;;15.17;3.37;;;13.80;99.90;;;;;;5100775;28;20207;-62
2022/10/02 05:34:39;;;;;;;20.47;3.83;;;13.80;99.90;;;;;;5069468;28;20216;-61
2022/10/02 05:37:31;;;;;;;20.07;3.53;;;13.80;99.90;;;;;;5081573;28;20191;-62
2022/10/02 05:40:09;;;;;;;20.03;3.73;;;13.80;99.90;;;;;;5064927;28;20199;-61
2022/10/02 05:42:44;;;;;;;20.07;4.00;;;13.80;99.90;;;;;;5066006;28;20188;-61
2022/10/02 05:45:24;;;;;;;16.80;3.37;;;13.80;99.90;;;;;;5107289;27;20202;-61
2022/10/02 05:47:55;;;;;;;20.13;4.00;;;13.80;99.90;;;;;;5051130;28;20196;-61
2022/10/02 05:50:29;;;;;;;11.57;3.40;;;13.80;99.90;;;;;;5055111;28;20211;-61
2022/10/02 05:53:03;;;;;;;21.87;3.43;;;13.70;99.90;;;;;;5065181;28;20213;-60
2022/10/02 05:55:37;;;;;;;10.33;3.10;;;13.70;99.90;;;;;;5053583;28;20208;-61
2022/10/02 05:58:11;;;;;;;19.33;3.40;;;13.70;99.90;;;;;;5058518;28;20195;-61
2022/10/02 06:00:45;;;;;;;22.67;3.43;;;13.70;99.90;;;;;;5062144;28;20212;-61
2022/10/02 06:03:19;;;;;;;15.53;3.53;;;13.70;99.90;;;;;;5069048;28;20196;-61
2022/10/02 06:05:54;;;;;;;11.20;3.10;;;13.70;99.90;;;;;;5076788;28;20228;-61
2022/10/02 06:08:32;;;;;;;17.40;3.20;;;13.70;99.90;;;;;;5076121;28;20215;-60
2022/10/02 06:11:06;;;;;;;21.70;3.63;;;13.70;99.90;;;;;;5068949;28;20195;-61
2022/10/02 06:13:42;;;;;;;11.47;3.27;;;13.70;99.90;;;;;;5068412;28;20218;-61
2022/10/02 06:16:17;;;;;;;20.60;3.83;;;13.70;99.90;;;;;;5065097;28;20191;-61
2022/10/02 06:18:50;;;;;;;12.53;2.90;;;13.70;99.90;;;;;;5061910;28;20269;-61
2022/10/02 06:21:28;;;;;;;15.47;3.67;;;13.70;99.90;;;;;;5079530;28;20204;-61
2022/10/02 06:24:02;;;;;;;12.17;3.37;;;13.70;99.90;;;;;;5099616;27;20422;-61
2022/10/02 06:26:40;;;;;;;16.63;3.97;;;13.70;99.90;;;;;;5071247;28;20271;-61
2022/10/02 06:29:13;;;;;;;12.10;2.83;;;13.70;99.90;;;;;;5063144;28;20195;-60
2022/10/02 06:31:52;;;;;;;16.47;3.53;;;13.70;99.90;;;;;;5068394;28;20614;-60
2022/10/02 06:34:20;;;;;;;14.23;2.60;;;13.70;99.90;;;;;;5065665;28;20545;-61
2022/10/02 06:37:21;;;;;;;17.00;3.27;;;13.70;99.90;;;;;;5061162;28;20200;-61
2022/10/02 06:40:16;;;;;;;12.37;3.50;;;13.70;99.90;;;;;;5089458;28;20206;-61
2022/10/02 06:42:55;;;;;;;15.63;3.10;;;13.70;99.90;;;;;;5068713;28;20196;-61
2022/10/02 06:45:33;;;;;;;17.23;3.10;;;13.70;99.90;;;;;;5062767;28;20206;-61
2022/10/02 06:48:08;;;;;;;11.07;2.70;;;13.70;99.90;;;;;;5066658;28;20565;-61
2022/10/02 06:50:55;;;;;;;12.03;3.20;;;13.60;99.90;;;;;;5064885;28;20199;-61
2022/10/02 06:53:46;;;;;;;16.43;3.93;;;13.70;99.90;;;;;;5066793;28;20642;-61
2022/10/02 06:56:37;;;;;;;22.33;4.10;;;13.70;99.90;;;;;;5060534;28;20207;-61
2022/10/02 06:59:19;;;;;;;10.20;2.87;;;13.60;99.90;;;;;;5064685;28;20203;-61
2022/10/02 07:01:57;;;;;;;11.33;2.97;;;13.70;99.90;;;;;;5062611;28;20275;-61
2022/10/02 07:04:42;;;;;;;13.87;2.87;;;13.70;99.90;;;;;;5064834;28;20571;-61
2022/10/02 07:07:23;;;;;;;12.80;3.20;;;13.70;99.90;;;;;;5065912;28;20578;-60
2022/10/02 07:10:14;;;;;;;17.43;3.37;;;13.70;99.90;;;;;;5063820;28;20661;-61
2022/10/02 07:13:07;;;;;;;16.63;3.40;;;13.70;99.90;;;;;;5062399;28;20199;-61
2022/10/02 07:15:57;;;;;;;9.83;2.97;;;13.70;99.90;;;;;;5057200;28;20197;-61
2022/10/02 07:18:41;;;;;;;14.70;3.57;;;13.70;99.90;;;;;;5067311;28;20204;-61
2022/10/02 07:21:20;;;;;;;14.87;3.20;;;13.70;99.90;;;;;;5065661;28;20188;-61
2022/10/02 07:23:57;;;;;;;11.13;3.33;;;13.70;99.90;;;;;;5062038;28;20235;-61
2022/10/02 07:26:42;;;;;;;11.10;3.00;;;13.80;99.90;;;;;;5068716;28;20192;-61
2022/10/02 07:29:26;;;;;;;9.03;3.20;;;13.70;99.90;;;;;;5068938;28;20203;-61
2022/10/02 07:32:11;;;;;;;10.27;2.80;;;13.70;99.90;;;;;;5062677;28;20189;-61
2022/10/02 07:34:50;;;;;;;11.03;3.27;;;13.80;99.90;;;;;;5069912;28;20216;-62
2022/10/02 07:37:27;;;;;;;12.27;3.00;;;13.70;99.90;;;;;;5069726;28;20196;-61
2022/10/02 07:40:10;;;;;;;6.03;2.23;;;13.70;99.90;;;;;;5059871;28;20231;-62
2022/10/02 07:42:54;;;;;;;9.37;2.70;;;13.70;99.90;;;;;;5061140;28;20188;-61
2022/10/02 07:45:32;;;;;;;7.03;2.57;;;13.70;99.90;;;;;;5059810;28;20199;-61
2022/10/02 07:48:25;;;;;;;10.27;2.80;;;13.80;99.90;;;;;;5071859;28;20199;-61
2022/10/02 07:51:45;;;;;;;9.03;2.53;;;13.80;99.90;;;;;;5064275;28;20204;-61
2022/10/02 07:54:20;;;;;;;8.73;2.10;;;13.90;99.90;;;;;;5066142;28;20215;-61
2022/10/02 07:56:50;;;;;;;7.03;2.53;;;13.90;99.90;;;;;;5070538;28;20222;-61
2022/10/02 07:59:20;;;;;;;4.63;2.50;;;14.00;99.90;;;;;;5068990;28;20193;-61
2022/10/02 08:01:51;;;;;;;10.37;2.60;;;14.00;99.90;;;;;;5064486;28;20184;-61
2022/10/02 08:04:28;;;;;;;5.80;2.60;;;14.10;99.90;;;;;;5067147;28;20196;-61
2022/10/02 08:07:05;;;;;;;4.87;2.23;;;14.20;99.90;;;;;;5061450;28;20236;-61
2022/10/02 08:09:37;;;;;;;7.97;2.23;;;14.20;99.90;;;;;;5045613;28;20645;-61
2022/10/02 08:12:20;;;;;;;7.37;2.50;;;14.30;99.90;;;;;;5056579;28;20212;-61
2022/10/02 08:14:52;;;;;;;6.20;2.70;;;14.30;99.90;;;;;;5063102;28;20211;-61
2022/10/02 08:17:29;;;;;;;7.60;2.43;;;14.30;99.90;;;;;;5053392;28;20207;-61
2022/10/02 08:20:02;;;;;;;6.13;2.40;;;14.20;99.90;;;;;;5056442;28;20192;-61
2022/10/02 08:22:36;;;;;;;7.87;2.57;;;14.20;99.90;;;;;;5064846;28;20656;-61
2022/10/02 08:25:13;;;;;;;5.33;2.30;;;14.30;99.90;;;;;;5062258;28;20678;-61
2022/10/02 08:27:51;;;;;;;5.33;3.10;;;14.30;99.90;;;;;;5068601;28;20207;-61
2022/10/02 08:30:20;;;;;;;5.30;2.50;;;14.20;99.90;;;;;;5055799;28;20211;-61
2022/10/02 08:32:49;;;;;;;5.70;2.53;;;14.20;99.90;;;;;;5062319;28;20192;-61
2022/10/02 08:35:19;;;;;;;4.20;2.20;;;14.30;99.90;;;;;;5057117;28;20219;-61
2022/10/02 08:38:09;;;;;;;8.00;2.50;;;14.30;99.90;;;;;;5055309;28;20196;-61
2022/10/02 08:41:18;;;;;;;8.03;2.67;;;14.30;99.90;;;;;;5055884;28;20650;-61
2022/10/02 08:44:24;;;;;;;6.20;2.33;;;14.30;99.90;;;;;;5060298;28;20562;-61
2022/10/02 08:47:22;;;;;;;6.27;2.70;;;14.20;99.90;;;;;;5059133;28;20254;-61
2022/10/02 08:50:25;;;;;;;6.00;2.33;;;14.20;99.90;;;;;;5052009;28;20192;-61
2022/10/02 08:53:37;;;;;;;8.30;2.53;;;14.20;99.90;;;;;;5059848;28;20191;-61
2022/10/02 08:56:33;;;;;;;6.00;2.30;;;14.40;99.90;;;;;;5048860;28;20644;-61
2022/10/02 08:59:33;;;;;;;6.97;2.83;;;14.50;99.90;;;;;;5043968;28;20208;-61
2022/10/02 09:02:46;;;;;;;6.80;2.67;;;14.60;99.90;;;;;;5063353;28;20201;-62
2022/10/02 09:05:48;;;;;;;5.17;2.63;;;14.60;99.90;;;;;;5066430;28;20188;-61
2022/10/02 09:08:51;;;;;;;7.90;2.83;;;14.50;99.90;;;;;;5067636;28;20600;-62
2022/10/02 09:11:40;;;;;;;5.27;2.70;;;14.50;99.90;;;;;;5066933;28;20539;-62
2022/10/02 09:14:33;;;;;;;5.77;2.70;;;14.50;99.90;;;;;;5072167;28;20196;-61
2022/10/02 09:17:29;;;;;;;4.67;2.70;;;14.50;99.90;;;;;;5068223;28;20227;-61
2022/10/02 09:20:19;;;;;;;4.13;3.13;;;14.50;99.90;;;;;;5065721;28;20582;-61
2022/10/02 09:23:38;;;;;;;5.03;3.17;;;14.50;99.90;;;;;;5066586;28;20201;-61
2022/10/02 09:26:18;;;;;;;6.30;2.90;;;14.40;99.90;;;;;;5003532;28;20557;-61
2022/10/02 09:29:35;;;;;;;7.50;2.70;;;14.40;99.90;;;;;;5019805;28;20263;-62
2022/10/02 09:32:42;;;;;;;3.37;2.63;;;14.40;99.90;;;;;;5056244;28;20205;-61
2022/10/02 09:35:46;;;;;;;7.57;3.30;;;14.40;99.90;;;;;;5060754;28;20212;-61
2022/10/02 09:38:49;;;;;;;7.07;3.37;;;14.40;99.90;;;;;;5059442;28;20196;-61
2022/10/02 09:41:48;;;;;;;6.27;3.30;;;14.30;99.90;;;;;;5056917;28;20239;-62
2022/10/02 09:44:58;;;;;;;4.17;3.30;;;14.30;99.90;;;;;;5060439;28;20210;-61
2022/10/02 09:48:00;;;;;;;4.60;2.73;;;14.20;99.90;;;;;;5064795;28;20220;-61
2022/10/02 09:50:59;;;;;;;5.57;2.57;;;14.20;99.90;;;;;;5065824;28;20192;-61
2022/10/02 09:54:31;;;;;;;8.27;3.00;;;14.20;99.90;;;;;;5064315;28;20670;-61
2022/10/02 09:57:42;;;;;;;4.27;2.33;;;14.20;99.90;;;;;;5060644;28;20292;-61
2022/10/02 10:00:25;;;;;;;7.90;3.00;;;14.20;99.90;;;;;;5057165;28;20204;-61
2022/10/02 10:03:35;;;;;;;4.00;2.20;;;14.30;99.90;;;;;;5064840;28;20655;-62
2022/10/02 10:06:37;;;;;;;2.33;1.87;;;14.30;99.90;;;;;;5089308;28;20234;-61
2022/10/02 10:09:31;;;;;;;5.37;2.50;;;14.40;99.90;;;;;;5063477;28;20253;-61
2022/10/02 10:12:21;;;;;;;5.87;2.33;;;14.30;99.90;;;;;;5057358;28;20199;-61
2022/10/02 10:15:39;;;;;;;6.03;2.30;;;14.40;99.90;;;;;;5064799;28;20675;-61
2022/10/02 10:18:41;;;;;;;4.03;2.17;;;14.50;99.90;;;;;;5005120;28;20234;-61
2022/10/02 10:21:54;;;;;;;3.53;2.27;;;14.50;99.90;;;;;;5062284;28;20207;-61
2022/10/02 10:24:58;;;;;;;4.93;2.07;;;14.50;99.90;;;;;;5053351;28;20229;-61
2022/10/02 10:28:09;;;;;;;3.97;2.10;;;14.60;99.90;;;;;;5030235;28;20212;-61
2022/10/02 10:31:02;;;;;;;5.50;2.43;;;14.60;99.90;;;;;;4991970;28;20203;-61
2022/10/02 10:34:09;;;;;;;6.47;2.47;;;14.70;99.90;;;;;;5064563;28;20204;-61
2022/10/02 10:40:25;;;;;;;6.03;2.40;;;14.80;99.90;;;;;;5059922;28;20554;-62
2022/10/02 10:43:28;;;;;;;5.87;2.60;;;14.80;99.90;;;;;;5067542;28;20548;-62
2022/10/02 10:46:32;;;;;;;5.67;2.40;;;14.90;99.90;;;;;;5063032;28;20282;-62
2022/10/02 10:49:29;;;;;;;6.03;2.50;;;14.90;99.90;;;;;;5042422;28;21141;-62
2022/10/02 10:52:10;;;;;;;7.73;2.50;;;15.00;99.90;;;;;;5050329;28;20221;-61
2022/10/02 10:55:06;;;;;;;4.83;3.00;;;15.00;99.90;;;;;;5069871;28;20283;-62
2022/10/02 10:57:50;;;;;;;3.73;2.47;;;14.90;99.90;;;;;;5057901;28;20194;-62
2022/10/02 11:00:23;;;;;;;9.30;2.80;;;14.90;99.90;;;;;;5062891;28;20200;-61
2022/10/02 11:03:35;;;;;;;5.27;3.00;;;14.90;99.90;;;;;;5081062;28;20188;-62
2022/10/02 11:06:30;;;;;;;7.20;3.10;;;15.00;99.90;;;;;;5068594;28;20778;-62
2022/10/02 11:09:28;;;;;;;4.63;2.43;;;15.10;99.90;;;;;;5068298;28;20674;-62
2022/10/02 11:12:20;;;;;;;5.33;2.60;;;15.10;99.90;;;;;;5063766;28;20735;-62
2022/10/02 11:15:05;;;;;;;5.40;2.40;;;15.20;99.90;;;;;;5074672;28;20196;-62
2022/10/02 11:18:08;;;;;;;3.30;2.23;;;15.30;99.90;;;;;;5072148;28;20194;-62
2022/10/02 11:21:12;;;;;;;5.33;2.50;;;15.30;99.90;;;;;;5064978;28;20656;-62
2022/10/02 11:24:15;;;;;;;6.73;2.60;;;15.40;99.90;;;;;;5069236;28;20683;-62
2022/10/02 11:26:53;;;;;;;10.13;2.70;;;15.40;99.90;;;;;;5067598;28;20200;-62
2022/10/02 11:29:52;;;;;;;7.57;2.67;;;15.50;99.90;;;;;;5073468;28;20204;-62
2022/10/02 11:32:58;;;;;;;5.77;2.77;;;15.50;99.90;;;;;;5066710;28;20199;-62
2022/10/02 11:35:46;;;;;;;2.83;2.40;;;15.50;99.90;;;;;;5056147;28;20200;-62
2022/10/02 11:38:31;;;;;;;4.80;2.50;;;15.50;99.90;;;;;;5056910;28;20205;-62
2022/10/02 11:41:20;;;;;;;3.70;2.50;;;15.60;99.90;;;;;;5057417;28;20195;-62
2022/10/02 11:44:11;;;;;;;7.53;3.57;;;15.60;99.90;;;;;;5069761;28;20214;-62
2022/10/02 11:46:57;;;;;;;6.00;3.00;;;15.60;99.90;;;;;;5066455;28;20553;-62
2022/10/02 11:49:59;;;;;;;9.53;2.97;;;15.70;99.90;;;;;;5058126;28;20206;-62
2022/10/02 11:52:50;;;;;;;4.93;2.23;;;15.80;99.90;;;;;;5058935;28;20843;-62
2022/10/02 11:55:45;;;;;;;5.10;2.20;;;15.70;99.90;;;;;;5088239;27;20225;-62
2022/10/02 11:58:26;;;;;;;6.03;3.43;;;15.70;99.90;;;;;;5053766;28;20186;-62
2022/10/02 12:01:21;;;;;;;5.90;3.57;;;15.70;99.90;;;;;;5085122;28;20196;-62
2022/10/02 12:04:12;;;;;;;5.57;3.97;;;15.70;99.90;;;;;;5053535;28;20723;-62
2022/10/02 12:06:54;;;;;;;5.57;2.90;;;15.80;99.90;;;;;;5053901;28;20298;-62
2022/10/02 12:09:33;;;;;;;5.20;2.63;;;15.80;99.90;;;;;;5063680;28;20202;-62
2022/10/02 12:12:13;;;;;;;4.73;2.80;;;15.80;99.90;;;;;;5058733;28;20196;-62
2022/10/02 12:14:50;;;;;;;7.97;3.30;;;15.80;99.90;;;;;;5059807;28;20197;-62
2022/10/02 12:17:52;;;;;;;3.90;2.63;;;15.80;99.90;;;;;;5059435;28;20205;-62
2022/10/02 12:29:27;;;;;;;7.70;3.47;;;16.10;99.90;;;;;;5062763;28;20614;-62
2022/10/02 12:32:06;;;;;;;8.80;3.33;;;16.20;99.90;;;;;;5063687;28;20662;-62
2022/10/02 12:34:46;;;;;;;6.60;3.80;;;16.10;99.90;;;;;;5063920;28;20275;-62
2022/10/02 12:37:23;;;;;;;5.20;3.27;;;16.00;99.90;;;;;;5079816;28;20226;-62
2022/10/02 12:40:00;;;;;;;6.53;3.80;;;16.10;99.90;;;;;;5066212;28;20187;-63
2022/10/02 12:42:59;;;;;;;4.77;3.37;;;16.20;99.90;;;;;;5064350;28;20201;-62
2022/10/02 12:46:18;;;;;;;7.93;4.10;;;16.20;99.90;;;;;;5065979;28;20613;-62
2022/10/02 12:49:06;;;;;;;6.87;4.37;;;16.20;99.90;;;;;;5060785;28;20202;-62
2022/10/02 12:51:45;;;;;;;7.73;4.63;;;16.30;99.90;;;;;;5068834;28;20236;-63
2022/10/02 12:54:47;;;;;;;9.57;5.27;;;16.40;99.90;;;;;;5061032;28;20205;-62
2022/10/02 13:00:22;;;;;;;7.23;4.93;;;16.30;99.90;;;;;;5062705;28;20202;-62
2022/10/02 13:03:31;;;;;;;6.07;5.47;;;16.30;99.90;;;;;;5064297;28;20198;-62
2022/10/02 13:06:43;;;;;;;6.23;5.63;;;16.40;99.90;;;;;;5060323;28;20236;-62
2022/10/02 13:09:44;;;;;;;9.80;6.70;;;16.50;99.90;;;;;;5029626;28;20206;-62
2022/10/02 13:12:21;;;;;;;10.50;6.10;;;16.50;99.90;;;;;;5059112;28;20196;-62
2022/10/02 13:15:10;;;;;;;11.50;6.07;;;16.60;99.90;;;;;;5058179;28;20633;-62
2022/10/02 13:17:46;;;;;;;12.23;7.10;;;16.70;99.90;;;;;;5062057;28;20715;-62
2022/10/02 13:20:25;;;;;;;9.10;5.80;;;16.80;99.90;;;;;;5093474;28;20196;-62
2022/10/02 13:23:05;;;;;;;13.50;6.20;;;16.80;99.90;;;;;;5055848;28;20212;-62
2022/10/02 13:25:53;;;;;;;8.93;5.70;;;16.80;99.90;;;;;;5065869;28;20242;-62
2022/10/02 13:28:40;;;;;;;8.27;5.77;;;16.80;99.90;;;;;;5055517;28;20285;-63
2022/10/02 13:31:19;;;;;;;10.70;5.80;;;16.80;99.90;;;;;;5054573;28;20237;-62
2022/10/02 13:34:04;;;;;;;11.97;5.57;;;16.90;99.90;;;;;;5056168;28;20199;-62
2022/10/02 13:36:43;;;;;;;10.40;5.83;;;16.80;99.90;;;;;;5055761;28;20687;-62
2022/10/02 13:39:29;;;;;;;8.53;5.43;;;16.90;99.90;;;;;;5054093;28;20196;-62
2022/10/02 13:42:16;;;;;;;12.83;6.33;;;17.00;99.90;;;;;;5085092;28;20232;-62
2022/10/02 13:44:53;;;;;;;9.57;5.60;;;17.10;99.90;;;;;;5053104;28;20195;-62
2022/10/02 13:47:31;;;;;;;11.13;5.87;;;17.20;99.90;;;;;;5055329;28;20199;-62
2022/10/02 13:50:17;;;;;;;10.50;5.90;;;17.20;99.90;;;;;;5062819;28;20207;-62
2022/10/02 13:52:56;;;;;;;8.43;5.33;;;17.10;99.90;;;;;;5089395;28;20639;-62
2022/10/02 13:55:28;;;;;;;10.27;6.50;;;17.00;99.90;;;;;;5062972;28;20210;-62
2022/10/02 13:58:21;;;;;;;8.03;5.50;;;17.00;99.90;;;;;;5060915;28;20214;-62
2022/10/02 14:01:00;;;;;;;15.57;6.37;;;17.00;99.90;;;;;;5060391;28;20189;-62
2022/10/02 14:03:42;;;;;;;12.07;6.20;;;17.10;99.90;;;;;;5059352;28;20231;-63
2022/10/02 14:06:20;;;;;;;10.93;6.30;;;17.10;99.90;;;;;;5056783;28;20250;-62
2022/10/02 14:09:11;;;;;;;14.93;6.97;;;17.20;99.90;;;;;;5062412;28;20199;-62
2022/10/02 14:11:55;;;;;;;9.43;6.23;;;17.30;99.90;;;;;;5058832;28;20196;-63
2022/10/02 14:14:41;;;;;;;9.37;5.77;;;17.60;99.90;;;;;;5058700;28;20554;-62
2022/10/02 14:17:20;;;;;;;10.57;5.77;;;17.70;99.90;;;;;;5061790;28;20216;-63
2022/10/02 14:20:14;;;;;;;15.07;6.20;;;17.60;99.90;;;;;;5061793;28;20196;-62